createdAt,value
2016-10-31T00:01:54.007Z,79.86
2016-10-31T00:05:30.346Z,79.01
2016-10-31T00:09:07.727Z,78.91
2016-10-31T00:12:44.132Z,79.3
2016-10-31T00:16:21.097Z,74.92
2016-10-31T00:19:58.509Z,77.68
2016-10-31T00:23:35.334Z,79.68
2016-10-31T00:27:12.569Z,79.68
2016-10-31T00:30:49.259Z,79.3
2016-10-31T00:34:26.604Z,79.33
2016-10-31T00:38:03.275Z,77.68
2016-10-31T00:41:40.904Z,78.91
2016-10-31T00:45:17.366Z,74.26
2016-10-31T00:48:54.637Z,76.44
2016-10-31T00:52:31.392Z,79.2
2016-10-31T00:56:08.189Z,79.77
2016-10-31T00:59:45.198Z,76.44
2016-10-31T01:03:22.439Z,75.87
2016-10-31T01:06:59.429Z,79.86
2016-10-31T01:10:36.418Z,75.68
2016-10-31T01:14:13.580Z,75.55
2016-10-31T01:17:50.183Z,78.5
2016-10-31T01:21:38.442Z,78.78
2016-10-31T01:25:14.722Z,75.78
2016-10-31T01:28:50.526Z,78.69
2016-10-31T01:32:26.661Z,79.83
2016-10-31T01:36:02.777Z,80.53
2016-10-31T01:39:39.299Z,78.02
2016-10-31T01:43:21.411Z,76.4
2016-10-31T01:46:57.182Z,76.97
2016-10-31T01:50:33.921Z,75.74
2016-10-31T01:54:11.856Z,75.89
2016-10-31T01:57:47.431Z,77.7
2016-10-31T02:01:23.925Z,79.6
2016-10-31T02:05:01.498Z,81.59
2016-10-31T02:08:38.596Z,80.21
2016-10-31T02:16:55.640Z,81.82
2016-10-31T02:20:32.086Z,81.82
2016-10-31T02:24:07.833Z,81.06
2016-10-31T02:27:24.153Z,80.58
2016-10-31T02:31:25.064Z,80.44
2016-10-31T02:35:01.767Z,80.53
2016-10-31T02:38:39.007Z,79.73
2016-10-31T02:42:15.111Z,79.11
2016-10-31T02:45:52.468Z,80.11
2016-10-31T02:49:29.127Z,79.63
2016-10-31T02:53:06.128Z,80.44
2016-10-31T02:56:42.891Z,79.96
2016-10-31T03:00:20.336Z,78.91
2016-10-31T03:03:57.112Z,79.35
2016-10-31T03:07:34.543Z,78.25
2016-10-31T03:11:10.977Z,78.34
2016-10-31T03:14:47.906Z,78.91
2016-10-31T03:18:25.492Z,78.06
2016-10-31T03:22:01.915Z,76.35
2016-10-31T03:25:39.426Z,76.35
2016-10-31T03:29:15.861Z,76.4
2016-10-31T03:32:53.475Z,76.59
2016-10-31T03:36:30.374Z,77.64
2016-10-31T03:40:07.832Z,76.78
2016-10-31T03:43:44.171Z,77.17
2016-10-31T03:47:20.822Z,77.55
2016-10-31T03:50:58.187Z,77.73
2016-10-31T03:54:34.845Z,78.02
2016-10-31T03:58:11.816Z,79.12
2016-10-31T04:01:49.674Z,78.93
2016-10-31T04:05:25.753Z,79.5
2016-10-31T04:09:03.273Z,79.31
2016-10-31T04:12:40.307Z,79.6
2016-10-31T04:16:17.124Z,79.88
2016-10-31T04:19:54.078Z,79.88
2016-10-31T04:23:31.550Z,79.69
2016-10-31T04:27:07.917Z,80.11
2016-10-31T04:30:45.272Z,79.92
2016-10-31T04:34:21.896Z,79.16
2016-10-31T04:38:02.047Z,79.35
2016-10-31T04:41:38.165Z,79.73
2016-10-31T04:45:14.803Z,80.02
2016-10-31T04:48:52.088Z,79.73
2016-10-31T04:52:28.889Z,80.02
2016-10-31T04:56:06.312Z,80.3
2016-10-31T04:59:42.850Z,80.58
2016-10-31T05:03:20.185Z,80.3
2016-10-31T05:06:56.662Z,80.49
2016-10-31T05:10:33.925Z,79.92
2016-10-31T05:14:18.010Z,80.3
2016-10-31T05:17:53.927Z,80.96
2016-10-31T05:21:30.512Z,80.11
2016-10-31T05:25:10.833Z,80.58
2016-10-31T05:28:48.441Z,81.82
2016-10-31T05:32:48.182Z,84.58
2016-10-31T05:36:24.217Z,81.77
2016-10-31T05:40:01.043Z,80.72
2016-10-31T05:43:38.227Z,80.05
2016-10-31T05:47:14.855Z,79.77
2016-10-31T05:50:51.770Z,79.58
2016-10-31T05:54:29.101Z,79.81
2016-10-31T05:58:05.690Z,79.49
2016-10-31T06:01:43.395Z,79.72
2016-10-31T06:05:19.672Z,79.33
2016-10-31T06:08:56.699Z,79.52
2016-10-31T06:12:33.720Z,79.62
2016-10-31T06:16:10.636Z,79.43
2016-10-31T06:19:47.922Z,80.1
2016-10-31T06:28:09.188Z,80
2016-10-31T06:31:45.088Z,79.62
2016-10-31T06:35:20.861Z,79.72
2016-10-31T06:38:56.420Z,78.86
2016-10-31T06:42:32.454Z,78.96
2016-10-31T06:46:40.263Z,79.05
2016-10-31T06:50:16.617Z,78.86
2016-10-31T06:53:53.897Z,79.52
2016-10-31T06:57:31.158Z,78.77
2016-10-31T07:01:07.797Z,78.38
2016-10-31T07:04:45.197Z,78.38
2016-10-31T07:08:21.668Z,78.77
2016-10-31T07:11:59.032Z,78.57
2016-10-31T07:15:35.803Z,78.96
2016-10-31T07:19:13.130Z,78.38
2016-10-31T07:22:49.599Z,78.61
2016-10-31T07:26:26.908Z,77.76
2016-10-31T07:30:03.624Z,78.61
2016-10-31T07:33:40.816Z,77.95
2016-10-31T07:37:17.848Z,78.33
2016-10-31T07:40:55.114Z,77.85
2016-10-31T07:44:31.659Z,77.28
2016-10-31T07:48:08.919Z,77.19
2016-10-31T07:51:45.512Z,76.61
2016-10-31T07:55:22.675Z,76.52
2016-10-31T07:59:00.003Z,75.89
2016-10-31T08:02:37.346Z,75.99
2016-10-31T08:06:14.982Z,75.23
2016-10-31T08:09:51.107Z,75.79
2016-10-31T08:13:27.519Z,74.75
2016-10-31T08:17:04.862Z,74.75
2016-10-31T08:20:41.568Z,74.84
2016-10-31T08:24:18.595Z,73.17
2016-10-31T08:27:55.599Z,72.31
2016-10-31T08:31:32.551Z,73.26
2016-10-31T08:35:09.943Z,72.5
2016-10-31T08:38:46.439Z,72.69
2016-10-31T08:42:23.515Z,71.96
2016-10-31T08:46:01.032Z,71.3
2016-10-31T08:49:37.617Z,70.44
2016-10-31T08:53:14.822Z,70.06
2016-10-31T08:56:52.426Z,70.25
2016-10-31T09:00:28.844Z,68.95
2016-10-31T09:04:06.149Z,68.72
2016-10-31T09:07:43.183Z,67.8
2016-10-31T09:11:20.676Z,67.23
2016-10-31T09:14:57.269Z,67.33
2016-10-31T09:18:34.713Z,66.47
2016-10-31T09:22:10.569Z,65.8
2016-10-31T09:25:47.798Z,65.8
2016-10-31T09:29:24.786Z,64.85
2016-10-31T09:33:02.005Z,63.83
2016-10-31T09:36:39.014Z,64.5
2016-10-31T09:40:15.428Z,63.54
2016-10-31T09:43:52.449Z,63.29
2016-10-31T09:47:29.958Z,62.15
2016-10-31T09:51:06.391Z,60.97
2016-10-31T09:54:43.827Z,61
2016-10-31T09:58:20.854Z,60.71
2016-10-31T10:01:57.562Z,60.71
2016-10-31T10:05:34.568Z,60.9
2016-10-31T10:09:12.575Z,60.14
2016-10-31T10:12:48.543Z,60.33
2016-10-31T10:16:26.463Z,58.33
2016-10-31T10:20:35.322Z,57.94
2016-10-31T10:24:10.870Z,57.4
2016-10-31T10:27:47.499Z,57.4
2016-10-31T10:31:24.771Z,57.59
2016-10-31T10:35:02.244Z,58.45
2016-10-31T10:38:38.320Z,58.16
2016-10-31T10:42:15.795Z,57.21
2016-10-31T10:45:52.373Z,57.02
2016-10-31T10:49:29.334Z,56.25
2016-10-31T10:58:19.778Z,54.85
2016-10-31T11:01:56.082Z,55.2
2016-10-31T11:05:31.763Z,54.91
2016-10-31T11:09:07.653Z,55.4
2016-10-31T11:17:26.599Z,53.41
2016-10-31T11:21:02.494Z,53.99
2016-10-31T11:24:38.360Z,53.61
2016-10-31T11:28:14.759Z,53.41
2016-10-31T11:31:51.989Z,53.51
2016-10-31T11:35:28.335Z,53.22
2016-10-31T11:39:05.821Z,52.94
2016-10-31T11:42:42.770Z,52.75
2016-10-31T11:46:19.486Z,52.46
2016-10-31T11:49:56.233Z,51.98
2016-10-31T11:53:33.241Z,51.89
2016-10-31T11:57:10.582Z,51.31
2016-10-31T12:00:47.939Z,51.24
2016-10-31T12:04:24.206Z,50.57
2016-10-31T12:08:01.565Z,50.38
2016-10-31T12:11:38.521Z,51.15
2016-10-31T12:15:15.975Z,50.57
2016-10-31T12:18:53.226Z,51.53
2016-10-31T12:22:29.304Z,51.53
2016-10-31T12:26:06.908Z,50.95
2016-10-31T12:29:43.158Z,50.86
2016-10-31T12:33:20.765Z,50.38
2016-10-31T12:36:57.790Z,50.19
2016-10-31T12:40:34.470Z,50.19
2016-10-31T12:44:11.710Z,49.9
2016-10-31T12:47:48.472Z,49.8
2016-10-31T12:51:25.556Z,49.64
2016-10-31T12:55:02.814Z,50.41
2016-10-31T12:58:40.068Z,49.64
2016-10-31T13:02:16.869Z,50.31
2016-10-31T13:05:53.388Z,50.5
2016-10-31T13:09:30.063Z,50.98
2016-10-31T13:13:07.417Z,50.6
2016-10-31T13:16:44.695Z,50.12
2016-10-31T13:20:21.690Z,50.02
2016-10-31T13:23:58.253Z,50.6
2016-10-31T13:31:48.103Z,49.84
2016-10-31T13:35:23.700Z,49.35
2016-10-31T13:39:00.074Z,49.35
2016-10-31T13:42:35.682Z,49.45
2016-10-31T13:46:12.011Z,49.35
2016-10-31T13:49:48.176Z,49.55
2016-10-31T13:53:25.550Z,49.45
2016-10-31T13:57:02.514Z,49.45
2016-10-31T14:00:39.468Z,49.93
2016-10-31T14:04:17.433Z,49.84
2016-10-31T14:07:53.248Z,49.55
2016-10-31T14:11:30.500Z,49.55
2016-10-31T14:15:07.244Z,49.35
2016-10-31T14:18:44.542Z,49.74
2016-10-31T14:22:21.891Z,50.02
2016-10-31T14:25:58.287Z,51.07
2016-10-31T14:29:35.193Z,50.98
2016-10-31T14:33:12.287Z,51.17
2016-10-31T14:36:49.863Z,50.79
2016-10-31T14:40:26.111Z,50.5
2016-10-31T14:44:03.195Z,51.07
2016-10-31T14:47:40.185Z,50.7
2016-10-31T14:51:17.202Z,51.27
2016-10-31T14:54:54.233Z,51.17
2016-10-31T14:58:31.262Z,51.36
2016-10-31T15:02:08.650Z,51.46
2016-10-31T15:05:45.085Z,51.65
2016-10-31T15:09:22.065Z,51.65
2016-10-31T15:13:27.276Z,51.65
2016-10-31T15:16:45.482Z,51.65
2016-10-31T15:20:44.015Z,52.03
2016-10-31T15:24:21.314Z,53.56
2016-10-31T15:27:58.618Z,53.08
2016-10-31T15:31:35.838Z,52.61
2016-10-31T15:35:12.437Z,53.37
2016-10-31T15:38:49.861Z,53.28
2016-10-31T15:42:27.530Z,52.99
2016-10-31T15:46:04.269Z,54.11
2016-10-31T15:50:16.972Z,54.44
2016-10-31T16:01:03.993Z,46.56
2016-10-31T16:04:19.361Z,46.37
2016-10-31T16:06:11.992Z,37.12
2016-10-31T16:09:52.482Z,47.12
2016-10-31T16:13:32.103Z,52.63
2016-10-31T16:17:08.676Z,54.78
2016-10-31T16:20:40.220Z,55.61
2016-10-31T16:24:17.433Z,57.53
2016-10-31T16:27:54.334Z,60.39
2016-10-31T16:32:04.290Z,63.51
2016-10-31T16:35:40.578Z,64.72
2016-10-31T16:39:17.463Z,63.64
2016-10-31T16:42:54.820Z,62.62
2016-10-31T16:46:31.569Z,62.05
2016-10-31T16:50:07.400Z,62.52
2016-10-31T16:53:44.051Z,63.2
2016-10-31T16:57:21.386Z,65.39
2016-10-31T17:00:58.565Z,64.5
2016-10-31T17:04:35.138Z,66.6
2016-10-31T17:08:11.905Z,68.09
2016-10-31T17:11:49.684Z,68.09
2016-10-31T17:15:26.738Z,68.66
2016-10-31T17:19:02.989Z,69.9
2016-10-31T17:22:40.197Z,70.15
2016-10-31T17:26:17.135Z,70.82
2016-10-31T17:29:54.533Z,71.48
2016-10-31T17:33:33.280Z,71.58
2016-10-31T17:37:09.368Z,71.64
2016-10-31T17:40:48.670Z,72.5
2016-10-31T17:44:29.522Z,73.55
2016-10-31T17:48:31.584Z,73.41
2016-10-31T17:52:09.500Z,73.41
2016-10-31T17:55:46.799Z,73.41
2016-10-31T17:59:27.497Z,73.61
2016-10-31T18:03:04.594Z,74.6
2016-10-31T18:06:40.577Z,74.84
2016-10-31T18:10:11.804Z,74.65
2016-10-31T18:13:49.801Z,74.27
2016-10-31T18:17:28.574Z,74.18
2016-10-31T18:21:06.086Z,74.46
2016-10-31T18:24:44.293Z,75.13
2016-10-31T18:28:23.187Z,75.7
2016-10-31T18:32:01.043Z,75.95
2016-10-31T18:36:03.312Z,75.67
2016-10-31T18:39:40.816Z,75.57
2016-10-31T18:43:18.844Z,75.95
2016-10-31T18:46:56.740Z,75.76
2016-10-31T18:51:06.225Z,76.14
2016-10-31T18:54:42.687Z,75.67
2016-10-31T18:58:19.112Z,75.67
2016-10-31T19:01:55.931Z,76.23
2016-10-31T19:05:32.745Z,75.72
2016-10-31T19:09:09.242Z,76.2
2016-10-31T19:12:45.823Z,76.76
2016-10-31T19:16:22.293Z,78.19
2016-10-31T19:19:58.650Z,77.72
2016-10-31T19:23:34.613Z,77.72
2016-10-31T19:27:16.019Z,77.91
2016-10-31T19:30:55.796Z,78
2016-10-31T19:34:55.685Z,77.62
2016-10-31T19:38:33.035Z,77.34
2016-10-31T19:42:09.959Z,77.34
2016-10-31T19:45:47.653Z,77.62
2016-10-31T19:49:25.040Z,76.67
2016-10-31T19:53:02.768Z,76.29
2016-10-31T19:56:39.372Z,76.48
2016-10-31T20:00:16.103Z,76.48
2016-10-31T20:03:53.067Z,77.49
2016-10-31T20:07:29.215Z,77.87
2016-10-31T20:11:05.988Z,78.63
2016-10-31T20:14:42.991Z,77.2
2016-10-31T20:17:59.941Z,77.3
2016-10-31T20:21:36.450Z,77.34
2016-10-31T20:25:13.339Z,77.01
2016-10-31T20:28:49.670Z,77.49
2016-10-31T20:32:25.881Z,79.86
2016-10-31T20:36:02.721Z,77.34
2016-10-31T20:39:38.585Z,79.14
2016-10-31T20:43:15.289Z,77.85
2016-10-31T20:46:51.248Z,74.24
2016-10-31T20:50:27.625Z,78.38
2016-10-31T20:54:03.699Z,74.96
2016-10-31T20:57:40.099Z,78.67
2016-10-31T21:01:16.905Z,79.62
2016-10-31T21:04:53.914Z,80.04
2016-10-31T21:08:30.775Z,80.04
2016-10-31T21:12:08.618Z,80.04
2016-10-31T21:15:44.732Z,80.13
2016-10-31T21:19:21.649Z,80.23
2016-10-31T21:22:58.893Z,80.23
2016-10-31T21:26:35.964Z,79.47
2016-10-31T21:30:12.779Z,80.04
2016-10-31T21:33:49.881Z,79.94
2016-10-31T21:37:27.484Z,80.04
2016-10-31T21:41:03.836Z,80.23
2016-10-31T21:44:40.862Z,79.75
2016-10-31T21:48:17.968Z,79.75
2016-10-31T21:51:55.180Z,80.61
2016-10-31T21:55:33.269Z,81.09
2016-10-31T21:59:09.641Z,81.56
2016-10-31T22:02:52.564Z,81.37
2016-10-31T22:06:28.969Z,80.71
2016-10-31T22:10:30.196Z,80.71
2016-10-31T22:14:09.852Z,80.61
2016-10-31T22:17:46.185Z,80.33
2016-10-31T22:21:22.364Z,79.94
2016-10-31T22:24:59.842Z,80.23
2016-10-31T22:28:37.011Z,80.71
2016-10-31T22:32:16.363Z,80.71
2016-10-31T22:35:52.716Z,80.86
2016-10-31T22:39:28.991Z,81.24
2016-10-31T22:43:05.971Z,81.43
2016-10-31T22:46:45.625Z,81.33
2016-10-31T22:50:23.045Z,81.43
2016-10-31T22:54:00.213Z,82
2016-10-31T22:57:38.324Z,81.43
2016-10-31T23:01:15.947Z,81.52
2016-10-31T23:04:52.169Z,82
2016-10-31T23:08:28.625Z,82.09
2016-10-31T23:12:06.614Z,82.38
2016-10-31T23:15:43.406Z,82.38
2016-10-31T23:19:20.467Z,83.23
2016-10-31T23:22:58.229Z,82.91
2016-10-31T23:26:35.407Z,82.95
2016-10-31T23:30:11.748Z,82.95
2016-10-31T23:33:48.337Z,82.48
2016-10-31T23:37:24.709Z,82.38
2016-10-31T23:41:01.194Z,82.28
2016-10-31T23:44:38.709Z,82.09
2016-10-31T23:48:14.849Z,81.9
2016-10-31T23:51:52.325Z,81.9
2016-10-31T23:55:28.619Z,82
2016-10-31T23:59:11.625Z,82.05
